Time;durP1;ratioP1;P1;durP2;ratioP2;P2;SDS_P1;SDS_P2;PMS_P1;PMS_P2;Temp;Humidity;BMP_temperature;BMP_pressure;BME280_temperature;BME280_humidity;BME280_pressure;Samples;Min_cycle;Max_cycle;Signal;HPM_P1;HPM_P2
2022/05/26 00:01:29;;;;;;;19.42;15.57;;;13.20;90.70;;;;;;5030909;28;20040;-46
2022/05/26 00:03:55;;;;;;;17.23;14.25;;;13.30;90.70;;;;;;5032806;28;20041;-45
2022/05/26 00:06:23;;;;;;;17.67;15.18;;;13.30;90.70;;;;;;5042187;28;20037;-45
2022/05/26 00:08:49;;;;;;;15.57;13.80;;;13.20;90.70;;;;;;5040705;28;20032;-45
2022/05/26 00:11:18;;;;;;;22.45;16.08;;;13.30;90.60;;;;;;5038794;28;20028;-45
2022/05/26 00:13:46;;;;;;;19.25;15.13;;;13.30;90.70;;;;;;5048637;28;20033;-45
2022/05/26 00:16:12;;;;;;;19.70;13.90;;;13.20;90.60;;;;;;5044215;28;20065;-44
2022/05/26 00:18:38;;;;;;;18.80;15.05;;;13.30;90.60;;;;;;5026719;28;20048;-44
2022/05/26 00:21:05;;;;;;;19.67;14.88;;;13.30;90.60;;;;;;5033791;28;20043;-44
2022/05/26 00:23:30;;;;;;;20.33;14.95;;;13.30;90.60;;;;;;5049303;28;20080;-43
2022/05/26 00:25:56;;;;;;;19.55;14.00;;;13.40;90.60;;;;;;5040017;28;20075;-44
2022/05/26 00:28:21;;;;;;;19.08;14.77;;;13.40;90.60;;;;;;5030766;28;20037;-45
2022/05/26 00:30:48;;;;;;;26.70;15.00;;;13.40;90.50;;;;;;5030696;28;20037;-44
2022/05/26 00:33:16;;;;;;;16.42;14.50;;;13.30;90.40;;;;;;5042771;28;20029;-44
2022/05/26 00:35:41;;;;;;;25.45;16.23;;;13.30;90.40;;;;;;5047905;28;20021;-44
2022/05/26 00:38:11;;;;;;;18.92;14.23;;;13.30;90.40;;;;;;5040360;28;20362;-43
2022/05/26 00:40:38;;;;;;;;;;;13.20;90.30;;;;;;5038835;28;20029;-44
2022/05/26 00:43:04;;;;;;;20.75;15.25;;;13.20;90.30;;;;;;5050377;28;19909;-43
2022/05/26 00:45:37;;;;;;;17.95;14.70;;;13.20;90.50;;;;;;5034056;28;20082;-45
2022/05/26 00:48:09;;;;;;;20.52;14.88;;;13.20;90.50;;;;;;5044023;28;20112;-44
2022/05/26 00:50:46;;;;;;;20.92;15.07;;;13.10;90.50;;;;;;5042455;28;20025;-46
2022/05/26 00:53:27;;;;;;;21.70;16.52;;;13.20;90.60;;;;;;5048215;28;20032;-45
2022/05/26 00:56:05;;;;;;;18.52;15.43;;;13.20;90.70;;;;;;5045543;28;20040;-45
2022/05/26 00:58:39;;;;;;;22.85;15.32;;;13.20;90.80;;;;;;5010257;28;20087;-44
2022/05/26 01:01:05;;;;;;;20.95;15.45;;;13.20;90.80;;;;;;5018791;28;20021;-44
2022/05/26 01:03:40;;;;;;;20.20;15.20;;;13.20;90.80;;;;;;5036376;28;20041;-45
2022/05/26 01:06:09;;;;;;;21.63;15.02;;;13.20;90.80;;;;;;5018004;28;20103;-44
2022/05/26 01:08:42;;;;;;;25.77;16.13;;;13.20;90.70;;;;;;5029338;28;20041;-45
2022/05/26 01:11:08;;;;;;;20.75;16.50;;;13.20;90.70;;;;;;5041548;28;20413;-44
2022/05/26 01:13:40;;;;;;;21.83;15.82;;;13.20;90.70;;;;;;5042564;28;20060;-43
2022/05/26 01:16:22;;;;;;;26.63;16.42;;;13.10;90.70;;;;;;5037775;28;20362;-45
2022/05/26 01:19:03;;;;;;;20.70;14.95;;;13.10;90.80;;;;;;5044346;28;20024;-44
2022/05/26 01:21:54;;;;;;;28.25;17.20;;;13.10;90.90;;;;;;5045663;28;20048;-44
2022/05/26 01:24:38;;;;;;;17.98;15.00;;;13.00;90.80;;;;;;5046827;28;20108;-44
2022/05/26 01:27:27;;;;;;;25.15;16.02;;;13.00;90.80;;;;;;5047977;28;20037;-44
2022/05/26 01:30:17;;;;;;;18.63;14.27;;;13.00;90.90;;;;;;5042686;28;20100;-48
2022/05/26 01:32:58;;;;;;;23.48;16.83;;;13.10;91.00;;;;;;5029389;28;20072;-44
2022/05/26 01:35:41;;;;;;;18.85;15.63;;;13.10;90.90;;;;;;5029019;28;20037;-44
2022/05/26 01:38:18;;;;;;;19.73;15.93;;;13.10;91.00;;;;;;5028470;28;20079;-45
2022/05/26 01:41:06;;;;;;;17.52;14.65;;;13.10;91.00;;;;;;5035869;28;20033;-46
2022/05/26 01:43:41;;;;;;;27.05;17.15;;;13.10;91.00;;;;;;5043024;28;20029;-44
2022/05/26 01:46:20;;;;;;;25.27;16.70;;;13.20;91.10;;;;;;5035895;28;20056;-45
2022/05/26 01:49:00;;;;;;;23.40;15.80;;;13.20;91.10;;;;;;5033985;28;20086;-45
2022/05/26 01:51:33;;;;;;;18.63;15.35;;;13.20;91.10;;;;;;5028624;28;20700;-44
2022/05/26 01:54:09;;;;;;;19.10;15.50;;;13.20;91.20;;;;;;5028371;28;20109;-44
2022/05/26 01:57:06;;;;;;;20.77;16.50;;;13.20;91.20;;;;;;5034248;28;20032;-45
2022/05/26 01:59:41;;;;;;;25.27;15.10;;;13.20;91.20;;;;;;5048332;28;20027;-43
2022/05/26 02:02:21;;;;;;;22.67;16.00;;;13.30;91.20;;;;;;5037300;28;20028;-45
2022/05/26 02:04:52;;;;;;;22.08;17.02;;;13.30;91.30;;;;;;5040809;28;20465;-45
2022/05/26 02:07:44;;;;;;;21.70;15.70;;;13.30;91.30;;;;;;5049366;28;20110;-44
2022/05/26 02:10:20;;;;;;;19.70;16.08;;;13.30;91.20;;;;;;5028244;28;20046;-44
2022/05/26 02:13:32;;;;;;;19.02;14.95;;;13.40;91.20;;;;;;5022082;28;20426;-44
2022/05/26 02:16:06;;;;;;;23.75;15.05;;;13.30;91.10;;;;;;5027866;28;20069;-43
2022/05/26 02:18:37;;;;;;;27.35;15.80;;;13.30;91.10;;;;;;5027877;28;20038;-44
2022/05/26 02:21:42;;;;;;;22.00;15.25;;;13.30;91.10;;;;;;5033248;28;20032;-44
2022/05/26 02:24:12;;;;;;;19.88;14.55;;;13.30;91.10;;;;;;5019969;28;20048;-42
2022/05/26 02:26:40;;;;;;;26.77;14.32;;;13.20;91.00;;;;;;5037272;28;20071;-43
2022/05/26 02:31:52;;;;;;;28.80;14.45;;;13.30;91.00;;;;;;5037129;28;20028;-43
2022/05/26 02:34:19;;;;;;;21.92;13.07;;;13.20;90.90;;;;;;5032932;28;20116;-43
2022/05/26 02:36:51;;;;;;;16.27;12.25;;;13.20;90.90;;;;;;5044987;28;20052;-42
2022/05/26 02:39:17;;;;;;;23.60;12.20;;;13.20;90.90;;;;;;5049594;28;20161;-43
2022/05/26 02:41:43;;;;;;;21.70;11.20;;;13.20;90.90;;;;;;5040752;28;20060;-43
2022/05/26 02:44:10;;;;;;;24.33;10.70;;;13.20;90.90;;;;;;5035509;28;20044;-43
2022/05/26 02:47:11;;;;;;;21.98;10.27;;;13.20;90.80;;;;;;5035630;28;20026;-45
2022/05/26 02:49:59;;;;;;;20.52;9.55;;;13.20;90.70;;;;;;5043606;28;20025;-43
2022/05/26 02:52:28;;;;;;;28.48;9.05;;;13.20;90.50;;;;;;5027823;28;20041;-44
2022/05/26 02:55:02;;;;;;;22.60;7.97;;;13.20;90.40;;;;;;5050263;28;20013;-43
2022/05/26 02:57:39;;;;;;;23.95;9.00;;;13.20;90.30;;;;;;5034861;28;20490;-43
2022/05/26 03:00:16;;;;;;;21.00;8.15;;;13.20;90.20;;;;;;5043716;28;20067;-43
2022/05/26 03:02:45;;;;;;;24.90;8.23;;;13.20;90.20;;;;;;5046820;28;20354;-45
2022/05/26 03:05:13;;;;;;;24.85;8.93;;;13.20;90.10;;;;;;5044656;28;20045;-43
2022/05/26 03:07:42;;;;;;;16.90;6.28;;;13.10;90.10;;;;;;5032619;28;20063;-43
2022/05/26 03:10:09;;;;;;;22.70;7.37;;;13.10;90.10;;;;;;5031872;28;20026;-44
2022/05/26 03:12:35;;;;;;;27.48;9.10;;;13.10;90.10;;;;;;5031823;28;20029;-43
2022/05/26 03:15:06;;;;;;;24.10;8.25;;;13.10;90.00;;;;;;5031843;28;20214;-43
2022/05/26 03:17:31;;;;;;;22.05;6.28;;;13.10;90.00;;;;;;5032038;28;20079;-44
2022/05/26 03:19:57;;;;;;;19.75;6.40;;;13.00;89.90;;;;;;5031224;28;20029;-45
2022/05/26 03:22:23;;;;;;;21.70;6.85;;;13.00;89.90;;;;;;5049644;28;20052;-45
2022/05/26 03:24:48;;;;;;;18.45;6.13;;;13.00;89.70;;;;;;5051972;28;20438;-44
2022/05/26 03:27:16;;;;;;;15.05;6.43;;;12.90;89.80;;;;;;5034992;28;20029;-44
2022/05/26 03:29:42;;;;;;;18.70;6.63;;;12.90;89.70;;;;;;5035344;28;20055;-44
2022/05/26 03:32:07;;;;;;;19.85;6.05;;;12.90;89.70;;;;;;5050957;28;20060;-44
2022/05/26 03:42:51;;;;;;;21.48;6.45;;;12.90;89.50;;;;;;5032920;28;20129;-45
2022/05/26 03:45:21;;;;;;;15.02;5.30;;;12.80;89.50;;;;;;5049726;28;20036;-45
2022/05/26 03:47:46;;;;;;;23.15;6.45;;;12.90;89.50;;;;;;5046418;28;20049;-47
2022/05/26 03:50:12;;;;;;;18.98;6.03;;;12.90;89.60;;;;;;5036055;28;20029;-44
2022/05/26 03:52:38;;;;;;;22.98;5.43;;;12.90;89.50;;;;;;5049876;28;20099;-44
2022/05/26 03:55:04;;;;;;;21.45;5.20;;;12.90;89.40;;;;;;5050511;28;20033;-44
2022/05/26 03:57:31;;;;;;;22.88;6.00;;;12.90;89.40;;;;;;5034028;28;20033;-43
2022/05/26 03:59:57;;;;;;;20.40;5.32;;;13.00;89.40;;;;;;5048108;28;20108;-43
2022/05/26 04:02:25;;;;;;;13.65;4.68;;;13.00;89.30;;;;;;5040892;28;20025;-44
2022/05/26 04:04:51;;;;;;;16.70;4.20;;;13.00;89.20;;;;;;5050322;28;20036;-47
2022/05/26 04:07:16;;;;;;;20.15;5.93;;;13.10;89.10;;;;;;5048750;28;20021;-48
2022/05/26 04:09:44;;;;;;;18.73;5.00;;;13.00;89.00;;;;;;5030520;28;20068;-43
2022/05/26 04:12:11;;;;;;;20.45;5.07;;;13.00;88.90;;;;;;5040145;28;20033;-44
2022/05/26 04:14:37;;;;;;;22.83;4.57;;;13.00;88.80;;;;;;5029526;28;20021;-44
2022/05/26 04:17:03;;;;;;;16.83;5.05;;;13.00;88.90;;;;;;5029983;28;20071;-44
2022/05/26 04:19:29;;;;;;;20.17;4.65;;;13.00;88.90;;;;;;5029629;28;20033;-46
2022/05/26 04:24:39;;;;;;;13.65;4.00;;;13.10;88.90;;;;;;5049151;28;20090;-43
2022/05/26 04:27:05;;;;;;;15.48;4.03;;;13.20;88.80;;;;;;5038532;28;20029;-43
2022/05/26 04:29:32;;;;;;;20.17;4.75;;;13.20;88.50;;;;;;5029974;28;20024;-43
2022/05/26 04:31:58;;;;;;;22.48;5.25;;;13.20;88.30;;;;;;5030749;28;20040;-43
2022/05/26 04:34:23;;;;;;;14.50;4.45;;;13.20;88.20;;;;;;5030491;28;20029;-44
2022/05/26 04:36:49;;;;;;;15.25;3.40;;;13.20;88.10;;;;;;5030722;28;20729;-42
2022/05/26 04:39:18;;;;;;;10.90;3.25;;;13.30;88.10;;;;;;5029114;28;20300;-43
2022/05/26 04:41:45;;;;;;;19.67;3.75;;;13.40;88.10;;;;;;5030257;28;20192;-44
2022/05/26 04:44:12;;;;;;;14.20;5.85;;;13.40;87.90;;;;;;5028556;28;20124;-42
2022/05/26 04:46:38;;;;;;;17.45;3.92;;;13.50;87.70;;;;;;5029650;28;20048;-44
2022/05/26 04:49:04;;;;;;;14.38;4.03;;;13.50;87.50;;;;;;5033848;28;20094;-42
2022/05/26 04:51:30;;;;;;;16.77;3.65;;;13.50;87.20;;;;;;5044658;28;20049;-43
2022/05/26 04:53:56;;;;;;;15.48;2.72;;;13.50;87.00;;;;;;5050271;28;20032;-45
2022/05/26 04:56:23;;;;;;;14.75;4.07;;;13.50;86.70;;;;;;5041454;28;20104;-42
2022/05/26 04:58:50;;;;;;;14.10;2.75;;;13.50;86.50;;;;;;5030308;28;20051;-42
2022/05/26 05:01:23;;;;;;;12.75;2.78;;;13.50;86.40;;;;;;5028945;28;20569;-41
2022/05/26 05:03:48;;;;;;;12.50;2.90;;;13.50;86.30;;;;;;5029347;28;20422;-42
2022/05/26 05:06:15;;;;;;;11.73;2.40;;;13.50;85.90;;;;;;5028701;28;20061;-43
2022/05/26 05:08:45;;;;;;;9.75;2.47;;;13.60;85.70;;;;;;5029459;28;20044;-42
2022/05/26 05:11:11;;;;;;;8.32;3.15;;;13.70;85.60;;;;;;5045823;28;20033;-42
2022/05/26 05:13:38;;;;;;;11.50;3.28;;;13.90;85.30;;;;;;5044996;28;20107;-44
2022/05/26 05:16:24;;;;;;;9.98;2.25;;;13.90;84.90;;;;;;5025393;28;20025;-44
2022/05/26 05:18:50;;;;;;;12.27;2.60;;;13.90;84.50;;;;;;5027494;28;20029;-41
2022/05/26 05:21:22;;;;;;;10.73;2.45;;;13.80;84.30;;;;;;5028256;28;20040;-41
2022/05/26 05:23:55;;;;;;;11.23;2.40;;;13.80;84.60;;;;;;5034661;28;20072;-45
2022/05/26 05:26:21;;;;;;;8.98;2.50;;;13.80;84.50;;;;;;5029487;28;20097;-43
2022/05/26 05:28:57;;;;;;;15.63;2.20;;;13.80;84.50;;;;;;5025745;28;20041;-42
2022/05/26 05:31:28;;;;;;;16.10;3.78;;;13.80;83.60;;;;;;5036584;28;20420;-44
2022/05/26 05:33:58;;;;;;;8.55;2.22;;;13.90;83.30;;;;;;5047124;28;20063;-44
2022/05/26 05:36:30;;;;;;;9.90;2.10;;;13.90;82.60;;;;;;5028497;28;20112;-42
2022/05/26 05:38:58;;;;;;;13.20;2.33;;;13.80;82.30;;;;;;5028629;28;20030;-43
2022/05/26 05:41:26;;;;;;;10.45;2.78;;;13.80;81.80;;;;;;5028504;28;20025;-42
2022/05/26 05:43:53;;;;;;;9.43;1.98;;;13.80;81.70;;;;;;5025906;28;20079;-42
2022/05/26 05:46:21;;;;;;;11.05;2.17;;;13.90;81.50;;;;;;5026332;28;20025;-43
2022/05/26 05:48:47;;;;;;;11.65;2.50;;;14.20;81.00;;;;;;5030121;28;20034;-44
2022/05/26 05:51:17;;;;;;;8.80;1.83;;;14.40;80.30;;;;;;5028533;28;20548;-42
2022/05/26 05:53:44;;;;;;;8.52;1.70;;;14.40;79.00;;;;;;5027908;28;20500;-44
2022/05/26 05:56:10;;;;;;;8.93;1.98;;;14.40;79.10;;;;;;5028586;28;20334;-42
2022/05/26 05:58:35;;;;;;;6.22;1.52;;;14.40;79.50;;;;;;5030165;28;20033;-42
2022/05/26 06:01:01;;;;;;;10.27;1.92;;;14.50;79.10;;;;;;5026909;28;20051;-44
2022/05/26 06:03:37;;;;;;;8.32;2.17;;;14.70;78.50;;;;;;5031045;28;20056;-43
2022/05/26 06:06:04;;;;;;;8.57;2.15;;;14.80;77.80;;;;;;5029244;28;20389;-42
2022/05/26 06:08:29;;;;;;;7.28;1.65;;;14.90;77.00;;;;;;5029792;28;20039;-44
2022/05/26 06:10:55;;;;;;;9.55;1.85;;;14.90;76.00;;;;;;5030478;28;20029;-42
2022/05/26 06:13:20;;;;;;;16.10;2.13;;;15.00;76.10;;;;;;5028957;28;20032;-42
2022/05/26 06:15:48;;;;;;;4.95;1.55;;;15.10;75.40;;;;;;5027143;28;20049;-44
2022/05/26 06:18:16;;;;;;;6.35;1.50;;;15.00;75.30;;;;;;5031518;28;20445;-43
2022/05/26 06:20:44;;;;;;;13.02;2.75;;;15.00;75.20;;;;;;5026310;28;20036;-42
2022/05/26 06:23:12;;;;;;;13.20;2.33;;;15.10;75.20;;;;;;5029653;28;20068;-42
2022/05/26 06:25:38;;;;;;;10.30;2.10;;;15.00;75.00;;;;;;5027289;28;20117;-45
2022/05/26 06:30:47;;;;;;;6.03;1.65;;;15.00;74.70;;;;;;5026992;28;20044;-43
2022/05/26 06:38:43;;;;;;;9.43;2.28;;;15.00;73.60;;;;;;5029830;28;20048;-43
2022/05/26 06:43:56;;;;;;;6.57;1.38;;;15.10;73.90;;;;;;5029705;28;20048;-44
2022/05/26 06:46:25;;;;;;;8.80;1.55;;;15.20;73.90;;;;;;5027518;28;20038;-43
2022/05/26 06:48:51;;;;;;;9.95;2.13;;;15.10;72.60;;;;;;5024702;28;20374;-43
2022/05/26 06:51:17;;;;;;;6.70;1.45;;;15.10;71.30;;;;;;5028268;28;20054;-44
2022/05/26 06:53:43;;;;;;;6.30;1.65;;;15.00;72.70;;;;;;5030797;28;20335;-44
2022/05/26 06:56:08;;;;;;;7.68;1.85;;;15.10;72.60;;;;;;5028928;28;20022;-44
2022/05/26 06:58:34;;;;;;;9.52;2.00;;;15.00;70.70;;;;;;5038532;28;20033;-45
2022/05/26 07:01:00;;;;;;;10.70;1.88;;;14.90;71.80;;;;;;5038606;28;20036;-42
2022/05/26 07:03:26;;;;;;;10.43;1.95;;;15.00;72.20;;;;;;5034948;28;20176;-43
2022/05/26 07:05:52;;;;;;;7.47;1.77;;;15.20;72.30;;;;;;5033307;28;20454;-43
2022/05/26 07:08:21;;;;;;;8.57;2.40;;;15.30;72.30;;;;;;5041108;28;20040;-44
2022/05/26 07:10:48;;;;;;;5.93;1.40;;;15.30;71.20;;;;;;5046992;28;20037;-43
2022/05/26 07:13:14;;;;;;;11.02;2.83;;;15.30;71.20;;;;;;5051724;28;20461;-44
2022/05/26 07:15:40;;;;;;;8.32;1.73;;;15.60;72.10;;;;;;5049093;28;20119;-46
2022/05/26 07:18:07;;;;;;;7.53;1.48;;;15.50;69.10;;;;;;5052185;28;20359;-43
2022/05/26 07:20:39;;;;;;;6.22;1.95;;;15.60;68.90;;;;;;5048220;28;20055;-44
2022/05/26 07:23:10;;;;;;;7.38;1.75;;;15.50;68.20;;;;;;5025808;28;20045;-44
2022/05/26 07:25:43;;;;;;;5.63;1.58;;;15.60;69.60;;;;;;5039407;28;20453;-43
2022/05/26 07:28:12;;;;;;;9.20;2.45;;;15.80;71.00;;;;;;5031343;28;20346;-45
2022/05/26 07:30:41;;;;;;;6.30;1.75;;;15.90;68.60;;;;;;5030775;28;20025;-44
2022/05/26 07:33:07;;;;;;;5.65;1.50;;;16.10;66.50;;;;;;5031437;28;20025;-45
2022/05/26 07:35:32;;;;;;;7.97;1.77;;;16.50;66.40;;;;;;5031059;28;20489;-43
2022/05/26 07:43:31;;;;;;;3.83;1.10;;;16.90;63.20;;;;;;5050041;28;20063;-43
2022/05/26 07:45:57;;;;;;;7.43;1.80;;;17.40;61.50;;;;;;5032864;28;20057;-42
2022/05/26 07:48:22;;;;;;;7.95;1.80;;;17.20;62.40;;;;;;5031494;28;20061;-44
2022/05/26 07:50:50;;;;;;;7.28;2.10;;;17.20;61.50;;;;;;5032948;28;20044;-43
2022/05/26 07:53:16;;;;;;;7.47;1.40;;;17.40;61.80;;;;;;5030236;28;20074;-43
2022/05/26 07:55:42;;;;;;;6.25;1.40;;;18.20;60.70;;;;;;5031796;28;20440;-44
2022/05/26 07:58:11;;;;;;;5.63;1.13;;;18.70;60.00;;;;;;5030801;28;20109;-43
2022/05/26 08:00:37;;;;;;;10.17;1.87;;;18.90;58.30;;;;;;5031548;28;20033;-44
2022/05/26 08:03:03;;;;;;;4.88;1.50;;;19.60;55.40;;;;;;5035218;28;20272;-44
2022/05/26 08:05:29;;;;;;;9.07;2.20;;;19.80;55.30;;;;;;5030726;28;20029;-44
2022/05/26 08:07:54;;;;;;;9.13;1.95;;;18.90;56.40;;;;;;5044711;28;20025;-45
2022/05/26 08:10:20;;;;;;;4.70;1.50;;;18.80;58.80;;;;;;5034173;28;20473;-43
2022/05/26 08:12:46;;;;;;;6.95;1.55;;;18.80;57.80;;;;;;5029735;28;20037;-46
2022/05/26 08:15:12;;;;;;;5.18;1.05;;;18.60;56.90;;;;;;5030216;28;20028;-43
2022/05/26 08:17:40;;;;;;;5.10;1.55;;;18.40;58.40;;;;;;5029394;28;20526;-44
2022/05/26 08:20:10;;;;;;;5.78;0.95;;;18.00;57.90;;;;;;5031627;28;20037;-43
2022/05/26 08:22:35;;;;;;;6.70;1.55;;;17.80;59.40;;;;;;5048860;28;20493;-44
2022/05/26 08:25:01;;;;;;;7.57;2.40;;;18.10;59.90;;;;;;5043566;28;20064;-45
2022/05/26 08:27:27;;;;;;;6.50;1.40;;;17.80;60.20;;;;;;5045259;28;20112;-44
2022/05/26 08:29:56;;;;;;;5.45;1.35;;;17.90;60.60;;;;;;5011187;28;20036;-44
2022/05/26 08:32:22;;;;;;;;;;;18.00;60.40;;;;;;5027187;28;20125;-42
2022/05/26 08:34:49;;;;;;;7.63;1.17;;;18.70;58.80;;;;;;5030791;28;19992;-46
2022/05/26 08:37:20;;;;;;;9.07;1.95;;;18.90;58.40;;;;;;5026347;28;20033;-46
2022/05/26 08:39:48;;;;;;;5.97;1.83;;;18.60;58.90;;;;;;5028801;28;20064;-46
2022/05/26 08:42:22;;;;;;;8.55;1.10;;;19.20;59.50;;;;;;5029875;28;20029;-46
2022/05/26 08:44:49;;;;;;;7.90;1.30;;;19.40;56.80;;;;;;5031305;28;20139;-44
2022/05/26 08:47:19;;;;;;;4.90;1.40;;;19.30;58.50;;;;;;5032797;28;20058;-43
2022/05/26 08:49:56;;;;;;;7.90;1.40;;;19.60;56.90;;;;;;5026607;28;20018;-45
2022/05/26 08:52:33;;;;;;;10.38;2.15;;;19.30;56.10;;;;;;5028598;28;20045;-44
2022/05/26 08:55:15;;;;;;;4.97;1.45;;;19.50;57.40;;;;;;5032432;28;20029;-48
2022/05/26 08:57:47;;;;;;;6.03;1.55;;;19.00;58.00;;;;;;5028576;28;20366;-44
2022/05/26 09:00:17;;;;;;;6.50;1.25;;;18.90;60.70;;;;;;5019317;28;20029;-45
2022/05/26 09:02:43;;;;;;;;;;;18.70;59.30;;;;;;5039430;28;20516;-43
2022/05/26 09:05:18;;;;;;;8.20;1.63;;;18.90;59.70;;;;;;5047622;28;19908;-44
2022/05/26 09:14:01;;;;;;;3.80;1.15;;;19.10;58.10;;;;;;5033992;28;20180;-43
2022/05/26 09:16:30;;;;;;;6.80;1.60;;;18.40;60.10;;;;;;5035436;28;20495;-44
2022/05/26 09:19:08;;;;;;;6.10;1.15;;;18.10;60.50;;;;;;5027863;28;20032;-43
2022/05/26 09:21:34;;;;;;;5.00;1.15;;;17.80;60.90;;;;;;5026399;28;20079;-43
2022/05/26 09:24:26;;;;;;;4.60;1.40;;;17.70;61.60;;;;;;5029045;28;20097;-45
2022/05/26 09:26:53;;;;;;;6.15;0.95;;;17.50;62.10;;;;;;5029574;28;20043;-47
2022/05/26 09:29:27;;;;;;;9.43;1.58;;;17.20;63.60;;;;;;5017826;28;20068;-43
2022/05/26 09:31:55;;;;;;;3.40;1.13;;;17.00;65.40;;;;;;5044297;28;20029;-44
2022/05/26 09:34:27;;;;;;;5.18;1.17;;;17.00;65.50;;;;;;5040813;28;20017;-43
2022/05/26 09:36:52;;;;;;;6.38;1.33;;;17.20;64.60;;;;;;5029027;28;20025;-43
2022/05/26 09:39:25;;;;;;;4.30;0.98;;;17.20;64.60;;;;;;5029518;28;20091;-44
2022/05/26 09:41:54;;;;;;;6.05;2.03;;;17.30;65.40;;;;;;5032679;28;20025;-43
2022/05/26 09:44:28;;;;;;;6.73;1.53;;;17.40;64.10;;;;;;5029616;28;20422;-43
2022/05/26 09:46:57;;;;;;;6.97;1.17;;;17.40;65.10;;;;;;5010820;28;20045;-44
2022/05/26 09:49:26;;;;;;;6.82;1.40;;;17.80;66.20;;;;;;5045525;28;20021;-44
2022/05/26 09:52:11;;;;;;;4.53;1.50;;;17.90;65.80;;;;;;5031561;28;20041;-44
2022/05/26 09:54:37;;;;;;;6.78;1.40;;;18.00;64.10;;;;;;5047336;28;20029;-44
2022/05/26 09:57:20;;;;;;;4.95;0.93;;;18.20;62.80;;;;;;5042237;28;20041;-43
2022/05/26 09:59:46;;;;;;;6.18;1.40;;;18.50;62.30;;;;;;5041559;28;20051;-44
2022/05/26 10:02:41;;;;;;;5.10;1.40;;;18.50;62.90;;;;;;5038926;28;20090;-44
2022/05/26 10:05:23;;;;;;;6.07;1.38;;;18.60;61.80;;;;;;5031864;28;20101;-45
2022/05/26 10:08:07;;;;;;;6.90;1.88;;;18.60;63.60;;;;;;5036935;28;20129;-44
2022/05/26 10:11:09;;;;;;;6.05;1.80;;;18.60;62.50;;;;;;5022181;28;20085;-47
2022/05/26 10:13:49;;;;;;;6.75;1.33;;;18.30;63.20;;;;;;5022434;28;20089;-45
2022/05/26 10:16:53;;;;;;;5.28;1.15;;;17.90;63.50;;;;;;5049269;28;20021;-45
2022/05/26 10:19:37;;;;;;;8.07;1.88;;;17.60;64.00;;;;;;5039938;28;20424;-44
2022/05/26 10:22:11;;;;;;;5.05;1.30;;;17.70;64.90;;;;;;5039072;28;20037;-43
2022/05/26 10:24:59;;;;;;;5.32;1.02;;;17.80;62.60;;;;;;5035379;28;20025;-45
2022/05/26 10:27:50;;;;;;;5.32;1.25;;;17.70;63.60;;;;;;5011621;28;20037;-44
2022/05/26 10:30:53;;;;;;;6.22;1.63;;;18.10;62.80;;;;;;5031802;28;20037;-44
2022/05/26 10:33:22;;;;;;;5.53;1.10;;;18.60;61.10;;;;;;5028234;28;20055;-46
2022/05/26 10:36:06;;;;;;;6.35;1.40;;;19.10;59.40;;;;;;5044557;28;20473;-46
2022/05/26 10:39:03;;;;;;;4.35;1.40;;;19.50;58.70;;;;;;5012238;28;20359;-45
2022/05/26 10:41:46;;;;;;;6.85;1.30;;;19.40;55.50;;;;;;5029557;28;20505;-45
2022/05/26 10:44:40;;;;;;;4.25;0.88;;;19.10;58.00;;;;;;5039358;28;20033;-46
2022/05/26 10:47:24;;;;;;;7.13;0.95;;;18.90;56.40;;;;;;5052869;28;20026;-45
2022/05/26 10:50:11;;;;;;;6.93;1.80;;;18.90;59.00;;;;;;5049023;28;20025;-44
2022/05/26 10:52:43;;;;;;;3.88;1.15;;;18.50;59.00;;;;;;5032230;28;20053;-46
2022/05/26 10:55:16;;;;;;;15.60;2.53;;;18.20;60.90;;;;;;5025174;28;20037;-44
2022/05/26 10:57:57;;;;;;;7.22;1.05;;;17.90;60.20;;;;;;5031923;28;20029;-47
2022/05/26 11:00:29;;;;;;;12.00;2.15;;;18.10;61.40;;;;;;5049277;28;20024;-45
2022/05/26 11:02:58;;;;;;;4.65;1.30;;;18.20;61.60;;;;;;5051220;28;20028;-46
2022/05/26 11:05:26;;;;;;;6.25;1.35;;;17.80;61.80;;;;;;5040309;28;20343;-44
2022/05/26 11:08:09;;;;;;;4.53;1.40;;;17.50;61.10;;;;;;5042719;28;20029;-44
2022/05/26 11:10:40;;;;;;;6.13;1.20;;;17.50;63.40;;;;;;5034603;28;20030;-44
2022/05/26 11:13:34;;;;;;;10.00;2.03;;;17.90;64.10;;;;;;5050077;28;20038;-45
2022/05/26 11:19:01;;;;;;;6.10;1.95;;;18.00;63.00;;;;;;5013071;28;20028;-44
2022/05/26 11:21:27;;;;;;;6.15;1.48;;;17.50;63.00;;;;;;5041948;28;20056;-47
2022/05/26 11:23:52;;;;;;;8.48;1.98;;;17.20;64.90;;;;;;5051461;28;20056;-44
2022/05/26 11:26:40;;;;;;;6.20;1.38;;;17.10;65.70;;;;;;5049151;28;20137;-46
2022/05/26 11:29:37;;;;;;;5.63;1.17;;;17.10;65.90;;;;;;5028454;28;20032;-44
2022/05/26 11:38:06;;;;;;;8.90;1.42;;;17.20;64.60;;;;;;5028838;28;20044;-43
2022/05/26 11:40:55;;;;;;;5.70;1.20;;;17.40;64.80;;;;;;5031177;28;20064;-45
2022/05/26 11:43:43;;;;;;;5.07;1.10;;;17.70;62.20;;;;;;5031177;28;20100;-45
2022/05/26 11:46:11;;;;;;;8.32;1.92;;;18.00;61.90;;;;;;5045198;28;20033;-45
2022/05/26 11:48:40;;;;;;;5.90;1.38;;;17.90;60.80;;;;;;5040294;28;20030;-44
2022/05/26 11:51:25;;;;;;;4.72;1.20;;;17.90;59.10;;;;;;5031758;28;20063;-44
2022/05/26 11:53:51;;;;;;;4.65;1.15;;;17.70;60.60;;;;;;5034329;28;20438;-45
2022/05/26 11:56:26;;;;;;;8.07;2.05;;;17.50;60.70;;;;;;5031790;28;20079;-44
2022/05/26 11:59:32;;;;;;;5.40;1.33;;;17.50;60.70;;;;;;5029021;28;20037;-45
2022/05/26 12:02:00;;;;;;;7.82;1.67;;;17.90;62.60;;;;;;5031491;28;20028;-44
2022/05/26 12:04:38;;;;;;;3.92;0.80;;;18.20;60.60;;;;;;5045667;28;20042;-45
2022/05/26 12:07:17;;;;;;;8.15;1.65;;;18.70;59.80;;;;;;5031969;28;20179;-44
2022/05/26 12:09:50;;;;;;;5.05;1.45;;;19.00;59.40;;;;;;5025614;28;20048;-44
2022/05/26 12:12:16;;;;;;;5.35;1.00;;;18.90;58.60;;;;;;5030011;28;20028;-45
2022/05/26 12:14:50;;;;;;;5.45;1.27;;;18.90;58.80;;;;;;5030166;28;20034;-44
2022/05/26 12:17:25;;;;;;;3.35;1.00;;;19.00;59.30;;;;;;5036812;28;20037;-44
2022/05/26 12:19:51;;;;;;;4.28;1.00;;;18.80;59.20;;;;;;5028438;28;20398;-44
2022/05/26 12:22:37;;;;;;;5.63;1.50;;;18.40;59.30;;;;;;5030643;28;20030;-46
2022/05/26 12:25:07;;;;;;;4.65;1.33;;;18.20;60.20;;;;;;5026518;28;20103;-45
2022/05/26 12:27:48;;;;;;;9.43;1.25;;;18.00;60.10;;;;;;5031365;28;20033;-44
2022/05/26 12:31:02;;;;;;;4.38;1.00;;;17.90;61.20;;;;;;5029117;28;20046;-43
2022/05/26 12:33:57;;;;;;;8.73;1.30;;;17.90;61.40;;;;;;5049736;28;20111;-44
2022/05/26 12:36:56;;;;;;;5.65;1.40;;;17.90;62.60;;;;;;5025974;28;20033;-45
2022/05/26 12:39:59;;;;;;;8.13;1.98;;;18.10;62.70;;;;;;5029378;28;20029;-44
2022/05/26 12:42:43;;;;;;;9.57;2.13;;;18.10;62.00;;;;;;5019416;28;20393;-44
2022/05/26 12:45:39;;;;;;;7.15;1.88;;;17.90;63.70;;;;;;5031315;28;20029;-46
2022/05/26 12:48:15;;;;;;;8.02;1.77;;;17.50;65.20;;;;;;5030265;28;20131;-44
2022/05/26 12:50:42;;;;;;;8.25;1.98;;;17.40;64.80;;;;;;5033764;28;20025;-45
2022/05/26 12:53:30;;;;;;;5.72;1.90;;;17.40;64.20;;;;;;5025946;28;20059;-45
2022/05/26 12:56:02;;;;;;;8.55;1.90;;;17.70;63.60;;;;;;5025191;28;20044;-49
2022/05/26 12:58:39;;;;;;;9.60;1.60;;;17.70;63.60;;;;;;5028003;28;20017;-48
2022/05/26 13:01:11;;;;;;;7.03;1.60;;;17.50;64.60;;;;;;5026067;28;20104;-45
2022/05/26 13:03:39;;;;;;;6.28;1.60;;;17.40;66.30;;;;;;5024917;28;20026;-44
2022/05/26 13:06:15;;;;;;;9.00;1.42;;;17.30;65.80;;;;;;5025568;28;20051;-47
2022/05/26 13:08:51;;;;;;;5.53;1.23;;;17.40;66.40;;;;;;5017004;28;20029;-45
2022/05/26 13:11:20;;;;;;;8.82;2.05;;;17.70;67.00;;;;;;5032116;28;20017;-44
2022/05/26 13:13:57;;;;;;;5.63;1.25;;;18.30;66.50;;;;;;5029793;28;20047;-44
2022/05/26 13:16:28;;;;;;;6.07;1.60;;;18.40;63.60;;;;;;5026728;28;20373;-46
2022/05/26 13:18:55;;;;;;;7.40;0.95;;;18.30;62.80;;;;;;5036979;28;20379;-44
2022/05/26 13:21:29;;;;;;;10.93;2.03;;;17.90;64.20;;;;;;5029039;28;20426;-48
2022/05/26 13:23:57;;;;;;;9.70;1.50;;;17.50;65.30;;;;;;5028371;28;20179;-44
2022/05/26 13:26:24;;;;;;;9.73;1.65;;;17.20;66.50;;;;;;5028346;28;20068;-46
2022/05/26 13:28:57;;;;;;;7.78;1.45;;;17.00;68.40;;;;;;5026219;28;20025;-46
2022/05/26 13:34:10;;;;;;;8.15;1.55;;;16.70;69.40;;;;;;5029900;28;20024;-46
2022/05/26 13:36:42;;;;;;;6.55;1.52;;;16.90;69.10;;;;;;5027609;28;20032;-45
2022/05/26 13:39:14;;;;;;;6.88;1.25;;;17.10;68.80;;;;;;5022793;28;20378;-45
2022/05/26 13:41:42;;;;;;;7.00;1.52;;;17.40;67.60;;;;;;5024758;28;20021;-45
2022/05/26 13:44:15;;;;;;;5.10;1.20;;;17.50;66.90;;;;;;5028013;28;20091;-46
2022/05/26 13:46:45;;;;;;;5.75;1.35;;;17.60;65.50;;;;;;5039150;28;20445;-43
2022/05/26 13:49:29;;;;;;;9.88;2.45;;;17.80;66.10;;;;;;5029023;28;20029;-46
2022/05/26 13:51:55;;;;;;;8.35;1.60;;;17.70;66.00;;;;;;5017603;28;20136;-48
2022/05/26 13:54:43;;;;;;;7.20;1.70;;;17.50;67.00;;;;;;5019723;28;20141;-45
2022/05/26 13:57:29;;;;;;;7.20;1.38;;;17.30;68.10;;;;;;5027835;28;20511;-44